Time;durP1;ratioP1;P1;durP2;ratioP2;P2;SDS_P1;SDS_P2;PMS_P1;PMS_P2;Temp;Humidity;BMP_temperature;BMP_pressure;BME280_temperature;BME280_humidity;BME280_pressure;Samples;Min_cycle;Max_cycle;Signal;HPM_P1;HPM_P2
2023/10/04 00:00:33;;;;;;;7.30;3.30;;;;;;;15.90;100.00;99078.50;4468262;32;20101;-78
2023/10/04 00:03:00;;;;;;;9.07;3.55;;;;;;;15.96;100.00;99075.19;4468269;32;20100;-77
2023/10/04 00:05:28;;;;;;;10.20;4.20;;;;;;;15.97;100.00;99074.19;4468202;32;20135;-77
2023/10/04 00:07:56;;;;;;;12.45;3.35;;;;;;;16.01;100.00;99077.34;4468132;32;20123;-77
2023/10/04 00:10:23;;;;;;;8.60;3.70;;;;;;;16.04;100.00;99067.25;4468128;32;20146;-77
2023/10/04 00:12:52;;;;;;;13.70;4.07;;;;;;;16.08;100.00;99068.59;4468209;32;20544;-77
2023/10/04 00:15:22;;;;;;;16.05;3.90;;;;;;;16.18;100.00;99070.25;4470710;32;20172;-77
2023/10/04 00:17:52;;;;;;;13.02;4.03;;;;;;;16.37;100.00;99079.66;4483699;31;20127;-77
2023/10/04 00:20:21;;;;;;;8.45;4.10;;;;;;;16.43;100.00;99082.44;4483182;32;20106;-77
2023/10/04 00:22:48;;;;;;;12.48;4.15;;;;;;;16.42;100.00;99070.22;4485926;31;20092;-78
2023/10/04 00:25:20;;;;;;;11.32;3.75;;;;;;;16.48;99.72;99081.94;4485831;31;20385;-77
2023/10/04 00:27:56;;;;;;;13.60;4.43;;;;;;;16.54;99.79;99078.63;4485723;31;20111;-77
2023/10/04 00:30:29;;;;;;;13.43;5.05;;;;;;;16.64;99.42;99079.28;4485866;31;20520;-77
2023/10/04 00:32:58;;;;;;;12.18;4.22;;;;;;;16.73;98.88;99090.66;4485817;31;20111;-77
2023/10/04 00:35:27;;;;;;;10.18;3.95;;;;;;;16.74;99.27;99088.84;4484363;32;20546;-77
2023/10/04 00:37:57;;;;;;;16.40;4.60;;;;;;;16.79;99.34;99092.63;4485721;31;20097;-78
2023/10/04 00:40:30;;;;;;;9.80;4.25;;;;;;;16.80;99.10;99102.22;4485623;31;20137;-77
2023/10/04 00:43:01;;;;;;;12.37;4.35;;;;;;;16.81;98.44;99103.88;4485844;31;20092;-77
2023/10/04 00:45:32;;;;;;;12.75;3.83;;;;;;;16.91;97.33;99106.38;4485740;31;20122;-77
2023/10/04 00:48:05;;;;;;;8.88;3.72;;;;;;;16.87;96.77;99107.69;4485662;31;20163;-77
2023/10/04 00:50:32;;;;;;;8.60;4.32;;;;;;;16.89;96.06;99105.69;4485707;31;20077;-78
2023/10/04 00:53:08;;;;;;;11.40;4.15;;;;;;;16.82;96.04;99108.19;4482886;32;20547;-77
2023/10/04 00:55:43;;;;;;;11.57;4.45;;;;;;;16.78;97.30;99124.56;4469974;32;20890;-77
2023/10/04 00:58:14;;;;;;;11.32;4.00;;;;;;;16.83;98.80;99128.31;4469821;32;20093;-77
2023/10/04 01:00:45;;;;;;;11.10;4.47;;;;;;;16.88;99.51;99116.44;4469927;32;20424;-78
2023/10/04 01:03:15;;;;;;;12.15;4.47;;;;;;;16.97;99.69;99104.84;4469976;32;20104;-77
2023/10/04 01:05:47;;;;;;;10.00;3.95;;;;;;;16.98;100.00;99111.81;4468708;32;20501;-78
2023/10/04 01:08:15;;;;;;;10.75;4.30;;;;;;;17.14;100.00;99109.09;4469948;32;20105;-77
2023/10/04 01:10:44;;;;;;;11.52;4.45;;;;;;;17.26;100.00;99096.31;4469943;32;20104;-77
2023/10/04 01:13:11;;;;;;;11.02;5.25;;;;;;;17.42;100.00;99092.75;4469671;32;20495;-77
2023/10/04 01:15:42;;;;;;;10.07;4.95;;;;;;;17.58;100.00;99096.31;4474509;32;20101;-77
2023/10/04 01:18:15;;;;;;;10.00;4.80;;;;;;;17.64;100.00;99088.50;4485609;31;20080;-77
2023/10/04 01:20:43;;;;;;;;;;;;;;;17.79;100.00;99099.19;4486134;31;20103;-77
2023/10/04 01:23:10;;;;;;;10.60;4.70;;;;;;;17.82;100.00;99096.19;4485649;31;20310;-77
2023/10/04 01:25:42;;;;;;;9.65;4.55;;;;;;;17.83;99.87;99103.09;4485285;32;20147;-77
2023/10/04 01:28:16;;;;;;;13.07;5.60;;;;;;;17.86;100.00;99107.25;4485346;31;20472;-77
2023/10/04 01:30:45;;;;;;;11.10;4.70;;;;;;;17.91;100.00;99104.91;4485084;31;20084;-78
2023/10/04 01:33:18;;;;;;;27.42;4.90;;;;;;;17.92;100.00;99103.91;4485222;31;20552;-78
2023/10/04 01:35:49;;;;;;;12.77;5.43;;;;;;;17.93;100.00;99110.06;4485291;32;20131;-77
2023/10/04 01:38:17;;;;;;;10.52;5.00;;;;;;;18.05;100.00;99103.34;4485380;31;20438;-77
2023/10/04 01:40:47;;;;;;;8.40;4.93;;;;;;;18.04;100.00;99109.63;4485346;31;20123;-78
2023/10/04 01:43:20;;;;;;;14.63;4.93;;;;;;;18.05;100.00;99112.13;4485224;31;20088;-78
2023/10/04 01:45:57;;;;;;;13.52;5.18;;;;;;;18.13;100.00;99105.91;4485373;31;20091;-78
2023/10/04 01:48:27;;;;;;;12.35;5.20;;;;;;;18.10;100.00;99108.94;4485127;31;20103;-77
2023/10/04 01:50:56;;;;;;;18.35;5.57;;;;;;;18.18;100.00;99116.84;4485507;31;20088;-77
2023/10/04 01:53:24;;;;;;;9.82;4.82;;;;;;;18.18;100.00;99122.13;4479835;31;20119;-78
2023/10/04 01:55:54;;;;;;;16.15;5.20;;;;;;;18.14;100.00;99133.25;4468301;32;20538;-78
2023/10/04 01:58:23;;;;;;;10.25;4.65;;;;;;;18.09;100.00;99131.13;4469361;32;20093;-78
2023/10/04 02:00:52;;;;;;;7.20;4.07;;;;;;;18.17;100.00;99124.94;4469590;32;20111;-78
2023/10/04 02:03:20;;;;;;;11.15;3.97;;;;;;;18.11;99.22;99131.81;4469334;32;20097;-77
2023/10/04 02:05:50;;;;;;;10.30;3.62;;;;;;;18.13;96.72;99136.94;4469416;32;20084;-77
2023/10/04 02:08:18;;;;;;;7.28;3.40;;;;;;;18.12;95.96;99140.56;4469657;32;20126;-78
2023/10/04 02:10:46;;;;;;;9.68;2.90;;;;;;;18.08;94.92;99127.66;4469539;32;20089;-78
2023/10/04 02:13:17;;;;;;;9.50;2.58;;;;;;;18.21;92.61;99137.69;4469532;32;20105;-78
2023/10/04 02:15:50;;;;;;;8.70;2.90;;;;;;;18.30;90.47;99142.94;4474790;32;20825;-78
2023/10/04 02:18:19;;;;;;;12.20;2.73;;;;;;;18.38;90.09;99134.88;4485264;31;20144;-78
2023/10/04 02:20:53;;;;;;;7.30;2.83;;;;;;;18.31;90.18;99140.09;4485065;31;20389;-78
2023/10/04 02:23:21;;;;;;;8.18;2.75;;;;;;;18.35;89.97;99135.25;4485091;31;20096;-78
2023/10/04 02:25:49;;;;;;;7.97;2.53;;;;;;;18.43;90.41;99159.06;4485051;32;20096;-78
2023/10/04 02:28:22;;;;;;;9.13;2.70;;;;;;;18.35;91.65;99159.12;4484910;31;20100;-78
2023/10/04 02:30:55;;;;;;;7.18;2.17;;;;;;;18.28;92.50;99148.41;4485039;31;20084;-77
2023/10/04 02:33:32;;;;;;;8.25;2.37;;;;;;;18.29;93.49;99157.19;4485118;31;20084;-78
2023/10/04 02:36:01;;;;;;;4.53;2.53;;;;;;;18.19;94.73;99146.81;4485136;31;20097;-77
2023/10/04 02:38:33;;;;;;;10.18;2.83;;;;;;;18.31;94.76;99158.66;4484756;31;20140;-77
2023/10/04 02:41:03;;;;;;;7.45;1.95;;;;;;;18.27;94.85;99162.66;4485078;31;20173;-77
2023/10/04 02:43:31;;;;;;;8.68;2.78;;;;;;;18.32;94.63;99162.13;4483885;31;20100;-78
2023/10/04 02:45:59;;;;;;;16.02;2.78;;;;;;;18.25;94.94;99172.63;4483397;32;20119;-78
2023/10/04 02:48:32;;;;;;;20.95;2.20;;;;;;;18.18;95.18;99180.47;4485221;31;20089;-77
2023/10/04 02:51:01;;;;;;;3.83;1.77;;;;;;;18.13;95.33;99174.03;4485069;31;20148;-77
2023/10/04 02:53:29;;;;;;;8.32;2.00;;;;;;;18.14;94.99;99184.47;4478978;31;20117;-78
2023/10/04 02:55:57;;;;;;;5.53;1.87;;;;;;;18.16;94.78;99181.66;4469335;32;20139;-78
2023/10/04 02:58:26;;;;;;;5.45;1.60;;;;;;;18.12;94.50;99181.16;4469542;32;20114;-78
2023/10/04 03:00:55;;;;;;;7.18;1.50;;;;;;;17.96;94.81;99173.34;4469108;32;20163;-78
2023/10/04 03:03:24;;;;;;;4.90;1.42;;;;;;;17.97;94.75;99191.72;4469165;32;20426;-78
2023/10/04 03:05:54;;;;;;;9.10;1.20;;;;;;;17.91;95.10;99184.44;4469291;32;20632;-78
2023/10/04 03:08:27;;;;;;;7.68;1.30;;;;;;;17.90;95.25;99194.22;4468932;32;20131;-78
2023/10/04 03:10:55;;;;;;;12.00;1.80;;;;;;;17.93;95.38;99192.25;4469171;32;20118;-78
2023/10/04 03:13:25;;;;;;;3.65;1.30;;;;;;;17.88;95.51;99198.00;4469164;32;20158;-78
2023/10/04 03:15:54;;;;;;;3.92;1.30;;;;;;;17.84;95.71;99191.41;4474983;32;20578;-78
2023/10/04 03:18:25;;;;;;;5.40;1.50;;;;;;;17.83;95.73;99214.44;4484878;31;20523;-78
2023/10/04 03:23:33;;;;;;;3.67;1.35;;;;;;;17.80;95.75;99214.78;4484718;31;20092;-77
2023/10/04 03:26:03;;;;;;;5.37;1.10;;;;;;;17.84;95.09;99226.69;4483416;32;20100;-78
2023/10/04 03:28:34;;;;;;;2.60;1.00;;;;;;;17.78;95.12;99218.63;4484708;31;20089;-78
2023/10/04 03:31:02;;;;;;;7.03;1.23;;;;;;;17.69;95.16;99217.81;4484596;31;20080;-78
2023/10/04 03:33:40;;;;;;;2.95;1.35;;;;;;;17.76;94.39;99218.78;4484626;31;20150;-78
2023/10/04 03:36:07;;;;;;;2.45;0.90;;;;;;;17.68;94.70;99218.81;4484261;31;20096;-78
2023/10/04 03:38:35;;;;;;;5.37;1.35;;;;;;;17.78;94.05;99215.97;4484522;31;20156;-78
2023/10/04 03:41:03;;;;;;;2.62;0.85;;;;;;;17.75;93.30;99211.81;4484551;31;20106;-77
2023/10/04 03:43:31;;;;;;;5.60;1.10;;;;;;;17.73;92.77;99221.78;4484483;31;20092;-78
2023/10/04 03:46:16;;;;;;;5.07;1.23;;;;;;;17.67;92.70;99222.47;4484276;31;20097;-77
2023/10/04 03:48:49;;;;;;;1.85;0.82;;;;;;;17.67;92.67;99230.41;4484187;31;20460;-77
2023/10/04 03:51:20;;;;;;;7.20;1.85;;;;;;;17.56;92.33;99243.03;4484133;32;20084;-78
2023/10/04 03:53:53;;;;;;;4.95;0.85;;;;;;;17.55;91.99;99232.59;4476462;31;20142;-77
2023/10/04 03:56:23;;;;;;;5.10;0.90;;;;;;;17.55;91.74;99245.84;4470385;32;20084;-78
2023/10/04 03:58:51;;;;;;;2.15;0.95;;;;;;;17.52;91.12;99241.72;4470183;32;20111;-80
2023/10/04 04:01:19;;;;;;;7.10;1.00;;;;;;;17.45;90.49;99243.38;4470268;32;20146;-80
2023/10/04 04:03:49;;;;;;;3.17;1.15;;;;;;;17.46;90.24;99268.87;4470253;32;20454;-80
2023/10/04 04:06:17;;;;;;;4.30;1.27;;;;;;;17.47;90.24;99259.94;4470459;32;20621;-80
2023/10/04 04:08:46;;;;;;;4.93;0.90;;;;;;;17.50;90.04;99280.81;4470243;32;20607;-80
2023/10/04 04:11:15;;;;;;;2.28;1.00;;;;;;;17.43;90.00;99282.47;4470105;32;20107;-81
2023/10/04 04:13:45;;;;;;;3.22;1.12;;;;;;;17.41;90.61;99284.47;4470151;32;20119;-81
2023/10/04 04:16:16;;;;;;;5.68;1.05;;;;;;;17.40;90.67;99292.59;4478225;32;20126;-77
2023/10/04 04:18:47;;;;;;;2.00;0.95;;;;;;;17.31;90.94;99291.75;4485282;31;20165;-79
2023/10/04 04:21:16;;;;;;;4.10;1.00;;;;;;;17.29;91.49;99291.09;4483962;32;20153;-78
2023/10/04 04:23:44;;;;;;;2.62;1.00;;;;;;;17.37;90.92;99296.38;4483410;31;20108;-78
2023/10/04 04:26:12;;;;;;;4.68;1.45;;;;;;;17.34;91.44;99289.59;4480846;31;20101;-78
2023/10/04 04:28:41;;;;;;;2.22;0.82;;;;;;;17.36;90.55;99290.25;4491007;31;20116;-78
2023/10/04 04:31:15;;;;;;;3.72;1.50;;;;;;;17.31;90.69;99291.75;4486668;31;20092;-78
2023/10/04 04:33:44;;;;;;;2.05;0.85;;;;;;;17.11;91.26;99285.97;4486852;31;20512;-79
2023/10/04 04:36:25;;;;;;;3.45;1.52;;;;;;;17.18;89.89;99293.09;4480664;32;20153;-81
2023/10/04 04:38:55;;;;;;;2.08;0.93;;;;;;;17.16;90.11;99291.59;4481698;32;20129;-79
2023/10/04 04:41:25;;;;;;;4.15;1.30;;;;;;;17.15;90.35;99304.03;4482131;31;20084;-81
2023/10/04 04:43:54;;;;;;;3.30;1.30;;;;;;;17.17;90.58;99312.63;4480721;32;20173;-81
2023/10/04 04:46:23;;;;;;;4.00;1.12;;;;;;;17.02;91.12;99319.59;4482684;31;20109;-81
2023/10/04 04:48:54;;;;;;;1.67;0.82;;;;;;;17.06;91.38;99326.19;4482484;31;20096;-81
2023/10/04 04:51:23;;;;;;;4.32;1.20;;;;;;;17.09;91.34;99340.91;4483471;32;20163;-81
2023/10/04 04:53:52;;;;;;;6.87;1.10;;;;;;;17.22;90.94;99341.25;4475034;32;20126;-81
2023/10/04 04:56:22;;;;;;;5.62;1.23;;;;;;;17.23;89.99;99339.41;4479757;32;20092;-81
2023/10/04 04:58:56;;;;;;;2.70;1.00;;;;;;;17.29;89.37;99338.75;4483603;31;20545;-81
2023/10/04 05:01:26;;;;;;;3.70;1.48;;;;;;;17.28;88.98;99342.41;4484702;31;20115;-81
2023/10/04 05:03:53;;;;;;;4.80;0.95;;;;;;;17.22;88.71;99351.03;4484671;31;20139;-82
2023/10/04 05:06:22;;;;;;;4.40;1.60;;;;;;;17.25;88.45;99351.50;4476628;32;20084;-82
2023/10/04 05:08:51;;;;;;;3.87;1.35;;;;;;;17.14;88.85;99352.66;4477566;31;20156;-81
2023/10/04 05:11:19;;;;;;;3.12;1.10;;;;;;;17.24;88.25;99375.50;4482413;31;20080;-81
2023/10/04 05:13:46;;;;;;;4.72;1.80;;;;;;;17.25;88.45;99374.53;4480095;31;20127;-82
2023/10/04 05:16:13;;;;;;;2.58;1.40;;;;;;;17.10;88.47;99396.34;4476608;31;20458;-83
2023/10/04 05:18:43;;;;;;;1.92;0.98;;;;;;;16.99;88.32;99392.19;4475640;32;20109;-83
2023/10/04 05:21:10;;;;;;;2.33;0.80;;;;;;;17.02;88.38;99399.00;4479204;32;20100;-81
2023/10/04 05:23:38;;;;;;;4.50;1.20;;;;;;;17.05;87.92;99397.81;4476339;32;20108;-79
2023/10/04 05:26:08;;;;;;;6.68;1.15;;;;;;;17.00;88.32;99382.44;4478427;31;20134;-79
2023/10/04 05:28:35;;;;;;;8.23;1.00;;;;;;;17.09;88.24;99394.66;4483894;31;20719;-82
2023/10/04 05:31:03;;;;;;;2.10;0.93;;;;;;;16.93;87.59;99405.25;4483024;31;20104;-82
2023/10/04 05:33:31;;;;;;;4.72;1.65;;;;;;;16.80;87.15;99403.84;4483284;31;20153;-83
2023/10/04 05:36:01;;;;;;;3.45;1.20;;;;;;;16.98;86.20;99419.66;4480459;31;20154;-82
2023/10/04 05:38:28;;;;;;;5.60;1.00;;;;;;;17.00;84.83;99411.53;4478837;32;20101;-81
2023/10/04 05:40:57;;;;;;;4.72;0.80;;;;;;;16.96;82.33;99420.81;4482488;32;20127;-84
2023/10/04 05:43:29;;;;;;;2.47;1.27;;;;;;;17.02;80.92;99422.81;4483680;31;20100;-83
2023/10/04 05:45:57;;;;;;;4.22;1.08;;;;;;;16.95;79.39;99441.16;4485385;31;20469;-83
2023/10/04 05:48:26;;;;;;;5.22;1.02;;;;;;;17.04;78.33;99449.94;4473634;31;20118;-81
2023/10/04 05:50:54;;;;;;;4.82;0.95;;;;;;;16.80;77.48;99453.31;4481104;32;20092;-81
2023/10/04 05:53:21;;;;;;;1.98;0.88;;;;;;;16.70;77.80;99464.03;4480236;31;20402;-81
2023/10/04 05:55:50;;;;;;;5.55;1.15;;;;;;;16.57;77.25;99453.88;4482960;31;20119;-82
2023/10/04 05:58:17;;;;;;;3.15;1.20;;;;;;;16.62;76.66;99466.63;4482491;32;20093;-81
2023/10/04 06:00:51;;;;;;;1.98;0.77;;;;;;;16.60;75.73;99463.34;4483528;31;20097;-80
2023/10/04 06:03:20;;;;;;;2.75;0.93;;;;;;;16.56;74.62;99464.62;4483656;32;20493;-82
2023/10/04 06:05:50;;;;;;;5.97;1.00;;;;;;;16.61;74.17;99459.72;4483856;31;20100;-79
2023/10/04 06:08:21;;;;;;;6.75;0.93;;;;;;;16.60;73.50;99479.19;4483199;31;20143;-78
2023/10/04 06:10:53;;;;;;;5.60;0.85;;;;;;;16.60;73.30;99485.31;4478527;32;20089;-77
2023/10/04 06:13:25;;;;;;;3.90;0.73;;;;;;;16.55;72.71;99481.47;4482268;32;20175;-76
2023/10/04 06:15:55;;;;;;;2.67;0.77;;;;;;;16.63;71.83;99486.81;4483620;31;20100;-78
2023/10/04 06:18:29;;;;;;;2.60;0.98;;;;;;;16.64;71.11;99507.81;4462638;31;20101;-78
2023/10/04 06:21:01;;;;;;;3.15;0.80;;;;;;;16.46;71.35;99504.44;4469327;32;20460;-80
2023/10/04 06:23:31;;;;;;;4.15;0.80;;;;;;;16.56;71.54;99513.06;4474952;31;20158;-82
2023/10/04 06:25:59;;;;;;;2.55;0.70;;;;;;;16.47;71.06;99532.53;4478238;31;20096;-86
2023/10/04 06:28:28;;;;;;;4.68;0.82;;;;;;;16.64;70.59;99533.47;4479469;31;20405;-81
2023/10/04 06:30:56;;;;;;;3.65;0.80;;;;;;;16.65;70.82;99546.53;4478928;31;20157;-83
2023/10/04 06:33:24;;;;;;;2.35;1.00;;;;;;;16.56;70.58;99551.91;4478326;31;20100;-82
2023/10/04 06:35:52;;;;;;;1.30;0.80;;;;;;;16.61;70.99;99549.66;4472218;31;20100;-80
2023/10/04 06:38:20;;;;;;;4.28;1.10;;;;;;;16.66;70.69;99545.53;4473750;31;20172;-77
2023/10/04 06:40:48;;;;;;;4.55;1.05;;;;;;;16.76;70.44;99561.31;4470582;32;20165;-81
2023/10/04 06:43:15;;;;;;;3.97;0.88;;;;;;;16.57;70.62;99537.72;4469579;32;20119;-82
2023/10/04 06:45:42;;;;;;;3.80;0.75;;;;;;;16.66;70.92;99547.34;4471666;32;20097;-79
2023/10/04 06:48:10;;;;;;;3.62;0.70;;;;;;;16.65;71.27;99545.69;4469741;31;20493;-77
2023/10/04 06:50:38;;;;;;;3.58;1.12;;;;;;;16.52;71.30;99566.44;4473091;31;20100;-77
2023/10/04 06:53:09;;;;;;;2.67;0.90;;;;;;;16.50;71.49;99564.78;4476121;31;20092;-79
2023/10/04 06:55:41;;;;;;;;;;;;;;;16.55;71.37;99572.25;4472025;31;20748;-76
2023/10/04 06:58:11;;;;;;;3.05;0.80;;;;;;;16.45;72.09;99577.62;4472728;32;20024;-78
2023/10/04 07:00:40;;;;;;;8.90;0.90;;;;;;;16.79;71.79;99581.31;4468757;32;20080;-77
2023/10/04 07:03:10;;;;;;;2.25;0.73;;;;;;;16.47;72.06;99580.97;4474196;31;20092;-80
2023/10/04 07:05:40;;;;;;;2.60;0.90;;;;;;;16.47;72.92;99580.97;4472831;32;20154;-78
2023/10/04 07:08:15;;;;;;;5.68;0.90;;;;;;;16.56;72.61;99578.38;4472583;32;20096;-79
2023/10/04 07:10:44;;;;;;;1.67;0.88;;;;;;;16.61;72.24;99578.75;4473968;32;20150;-78
2023/10/04 07:13:12;;;;;;;3.05;0.98;;;;;;;16.31;73.64;99572.94;4471037;31;20123;-78
2023/10/04 07:15:41;;;;;;;1.70;0.73;;;;;;;16.39;73.70;99566.84;4474691;31;20096;-78
2023/10/04 07:18:12;;;;;;;2.95;0.88;;;;;;;16.40;74.52;99561.41;4473854;31;20180;-79
2023/10/04 07:20:40;;;;;;;2.33;0.85;;;;;;;16.23;75.10;99552.53;4469763;32;20092;-81
2023/10/04 07:23:10;;;;;;;2.03;0.75;;;;;;;16.16;75.21;99548.03;4474066;32;20171;-81
2023/10/04 07:25:41;;;;;;;2.58;0.98;;;;;;;16.18;75.41;99548.69;4470506;31;21837;-79
2023/10/04 07:28:09;;;;;;;2.67;0.90;;;;;;;16.10;75.94;99558.22;4472824;31;20119;-80
2023/10/04 07:30:39;;;;;;;5.60;1.15;;;;;;;16.06;76.66;99572.72;4473414;32;20138;-79
2023/10/04 07:33:08;;;;;;;6.80;1.17;;;;;;;16.30;75.50;99577.38;4467365;32;20116;-80
2023/10/04 07:35:37;;;;;;;1.52;0.80;;;;;;;16.29;75.27;99601.31;4471168;31;20108;-80
2023/10/04 07:38:05;;;;;;;2.00;0.82;;;;;;;16.25;75.72;99613.19;4468215;32;20172;-78
2023/10/04 07:40:33;;;;;;;2.37;0.70;;;;;;;16.30;75.93;99603.81;4472184;32;20101;-79
2023/10/04 07:43:01;;;;;;;4.57;0.70;;;;;;;16.55;75.68;99609.28;4466360;32;20517;-79
2023/10/04 07:45:30;;;;;;;4.60;1.23;;;;;;;16.61;75.10;99610.50;4470498;31;20087;-81
2023/10/04 07:48:01;;;;;;;35.92;4.47;;;;;;;16.90;74.32;99617.31;4469680;32;20142;-81
2023/10/04 07:50:29;;;;;;;2.83;1.08;;;;;;;16.98;73.72;99612.87;4470844;32;20148;-77
2023/10/04 07:53:04;;;;;;;6.53;1.40;;;;;;;16.90;73.45;99620.78;4469620;31;20177;-77
2023/10/04 07:55:37;;;;;;;13.15;1.73;;;;;;;16.98;73.70;99612.87;4472056;32;20119;-79
2023/10/04 07:58:05;;;;;;;3.70;1.23;;;;;;;17.02;74.11;99613.41;4472457;31;20157;-78
2023/10/04 08:00:41;;;;;;;2.00;0.65;;;;;;;17.17;72.99;99621.59;4472109;32;20136;-79
2023/10/04 08:03:10;;;;;;;1.30;0.70;;;;;;;16.78;74.29;99617.53;4465023;32;20101;-82
2023/10/04 08:05:39;;;;;;;2.95;1.00;;;;;;;17.10;74.11;99613.44;4472207;32;20096;-77
2023/10/04 08:08:07;;;;;;;3.62;1.27;;;;;;;17.01;74.35;99614.38;4465358;31;20104;-76
2023/10/04 08:10:36;;;;;;;2.75;0.82;;;;;;;16.92;74.94;99615.34;4467307;32;20115;-75
2023/10/04 08:13:04;;;;;;;3.37;0.73;;;;;;;16.83;75.26;99615.22;4471628;32;20135;-75
2023/10/04 08:15:36;;;;;;;3.45;1.15;;;;;;;16.70;75.55;99622.78;4469446;31;20143;-76
2023/10/04 08:18:05;;;;;;;2.00;0.75;;;;;;;16.74;75.72;99621.47;4469903;32;20398;-77
2023/10/04 08:20:34;;;;;;;4.30;0.90;;;;;;;16.92;75.50;99636.50;4474030;31;20797;-76
2023/10/04 08:23:02;;;;;;;4.85;1.10;;;;;;;16.83;76.22;99622.34;4474117;31;20822;-76
2023/10/04 08:25:34;;;;;;;4.50;0.70;;;;;;;16.92;75.65;99626.75;4469318;31;20163;-77
2023/10/04 08:28:06;;;;;;;2.17;0.90;;;;;;;17.04;76.12;99629.94;4471391;31;20131;-75
2023/10/04 08:30:34;;;;;;;6.25;1.12;;;;;;;16.94;75.51;99629.22;4474453;31;20120;-78
2023/10/04 08:33:03;;;;;;;8.15;1.85;;;;;;;17.07;75.40;99632.28;4467892;31;20521;-80
2023/10/04 08:35:36;;;;;;;3.00;1.20;;;;;;;17.12;76.20;99639.75;4465888;32;20142;-77
2023/10/04 08:38:05;;;;;;;1.98;1.00;;;;;;;17.43;74.91;99644.53;4473959;32;20123;-79
2023/10/04 08:40:38;;;;;;;2.28;1.17;;;;;;;17.38;74.47;99647.62;4468797;31;20130;-79
2023/10/04 08:43:07;;;;;;;3.12;1.05;;;;;;;17.30;73.76;99637.03;4475086;32;20127;-79
2023/10/04 08:45:36;;;;;;;1.90;0.82;;;;;;;17.14;74.65;99646.56;4469393;32;20092;-79
2023/10/04 08:48:05;;;;;;;4.40;1.10;;;;;;;17.08;75.10;99648.97;4473037;31;20176;-76
2023/10/04 08:50:38;;;;;;;1.80;1.00;;;;;;;17.05;75.29;99647.50;4474964;31;20691;-80
2023/10/04 08:53:12;;;;;;;2.15;0.70;;;;;;;16.75;76.56;99639.00;4471221;31;20855;-79
2023/10/04 08:55:47;;;;;;;3.50;0.80;;;;;;;16.68;76.84;99640.63;4469298;32;20096;-79
2023/10/04 08:58:15;;;;;;;2.92;1.00;;;;;;;16.57;77.79;99649.63;4464945;32;20158;-78
2023/10/04 09:00:44;;;;;;;2.25;0.70;;;;;;;16.57;78.25;99665.50;4471265;32;20185;-78
2023/10/04 09:03:13;;;;;;;4.60;1.00;;;;;;;16.39;78.23;99667.34;4473035;32;20101;-78
2023/10/04 09:05:46;;;;;;;3.87;1.25;;;;;;;16.38;78.50;99670.97;4469784;32;20865;-80
2023/10/04 09:08:16;;;;;;;4.30;1.10;;;;;;;16.43;78.79;99676.66;4469860;31;20104;-81
2023/10/04 09:10:45;;;;;;;2.53;0.88;;;;;;;16.46;78.04;99674.53;4471239;32;20490;-80
2023/10/04 09:13:13;;;;;;;1.40;0.70;;;;;;;16.97;78.11;99661.53;4472285;32;20112;-80
2023/10/04 09:15:42;;;;;;;1.95;0.98;;;;;;;17.70;75.66;99662.00;4472782;32;20576;-79
2023/10/04 09:18:11;;;;;;;5.53;1.25;;;;;;;18.07;73.06;99669.56;4468791;32;20160;-79
2023/10/04 09:20:39;;;;;;;2.10;1.10;;;;;;;18.32;72.10;99674.06;4466655;32;20945;-79
2023/10/04 09:23:24;;;;;;;9.93;1.20;;;;;;;18.43;70.71;99669.25;4463495;32;20113;-77
2023/10/04 09:25:55;;;;;;;4.25;0.93;;;;;;;18.77;69.18;99668.25;4470361;32;20193;-79
2023/10/04 09:28:38;;;;;;;4.10;1.45;;;;;;;19.17;67.58;99665.72;4483827;31;20100;-78
2023/10/04 09:31:10;;;;;;;2.78;1.25;;;;;;;19.26;66.76;99672.66;4466797;32;20160;-78
2023/10/04 09:33:39;;;;;;;1.92;1.00;;;;;;;19.60;65.60;99668.84;4467827;32;20127;-79
2023/10/04 09:36:10;;;;;;;3.05;1.20;;;;;;;19.58;63.84;99676.19;4472291;31;20104;-80
2023/10/04 09:38:39;;;;;;;2.35;0.93;;;;;;;19.78;63.88;99689.06;4473166;31;20116;-80
2023/10/04 09:41:10;;;;;;;2.03;1.00;;;;;;;19.97;62.25;99691.31;4469174;31;20100;-80
2023/10/04 09:43:39;;;;;;;7.45;1.40;;;;;;;20.15;61.85;99688.37;4471908;32;20101;-81
2023/10/04 09:46:10;;;;;;;4.30;1.40;;;;;;;20.57;60.92;99680.87;4477618;32;20144;-80
2023/10/04 09:48:44;;;;;;;1.87;1.10;;;;;;;20.45;59.33;99693.78;4469245;32;20556;-80
2023/10/04 09:51:14;;;;;;;2.67;1.20;;;;;;;20.60;58.78;99695.66;4472435;32;20123;-80
2023/10/04 09:53:43;;;;;;;3.55;1.35;;;;;;;21.00;57.22;99710.50;4473610;31;20127;-79
2023/10/04 09:56:12;;;;;;;3.37;1.35;;;;;;;20.82;57.77;99713.47;4471896;32;20127;-76
2023/10/04 09:58:53;;;;;;;2.58;0.90;;;;;;;20.27;58.52;99710.03;4468850;32;20112;-76
2023/10/04 10:01:24;;;;;;;7.15;1.33;;;;;;;20.17;58.87;99712.13;4467934;32;20183;-78
2023/10/04 10:03:56;;;;;;;2.20;1.00;;;;;;;20.01;59.74;99713.03;4466483;32;20109;-79
2023/10/04 10:06:27;;;;;;;3.25;1.00;;;;;;;19.91;59.84;99715.09;4473471;32;20770;-78
2023/10/04 10:08:59;;;;;;;3.72;1.00;;;;;;;20.06;59.85;99710.72;4469147;32;20158;-78
2023/10/04 10:11:27;;;;;;;2.60;1.05;;;;;;;20.08;58.79;99706.03;4468623;32;20089;-78
2023/10/04 10:13:55;;;;;;;1.83;0.90;;;;;;;20.01;59.54;99710.38;4475866;32;20133;-77
2023/10/04 10:16:23;;;;;;;4.47;1.00;;;;;;;20.15;59.55;99698.16;4472912;32;20127;-80
2023/10/04 10:18:52;;;;;;;3.22;1.10;;;;;;;20.46;59.23;99702.63;4478917;32;20087;-78
2023/10/04 10:21:20;;;;;;;5.28;0.95;;;;;;;20.49;58.33;99699.59;4478942;32;20096;-78
2023/10/04 10:23:56;;;;;;;1.23;0.80;;;;;;;20.07;57.64;99698.22;4471765;31;20105;-78
2023/10/04 10:26:24;;;;;;;2.28;1.40;;;;;;;19.73;58.18;99686.06;4475889;32;20104;-78
2023/10/04 10:29:05;;;;;;;5.45;1.30;;;;;;;19.57;58.84;99697.63;4477348;32;20104;-78
2023/10/04 10:31:32;;;;;;;5.22;1.00;;;;;;;19.58;58.76;99705.41;4480209;31;20167;-75
2023/10/04 10:34:03;;;;;;;2.33;1.05;;;;;;;19.72;58.02;99700.38;4481531;31;20085;-75
2023/10/04 10:36:35;;;;;;;3.15;1.05;;;;;;;19.63;56.03;99704.91;4479168;31;20609;-79
2023/10/04 10:39:18;;;;;;;4.37;1.23;;;;;;;20.01;55.64;99711.19;4479867;32;20108;-79
2023/10/04 10:41:55;;;;;;;4.18;1.35;;;;;;;20.07;55.42;99707.03;4478766;32;20084;-77
2023/10/04 10:44:33;;;;;;;3.15;0.90;;;;;;;20.43;54.37;99708.28;4479607;32;20115;-76
2023/10/04 10:47:17;;;;;;;2.10;0.90;;;;;;;20.60;52.67;99717.78;4480828;32;20178;-77
2023/10/04 10:50:12;;;;;;;2.28;1.10;;;;;;;20.98;52.60;99717.81;4481025;31;20453;-77
2023/10/04 10:52:41;;;;;;;1.35;0.90;;;;;;;20.55;52.28;99710.34;4478495;32;20149;-78
2023/10/04 10:55:17;;;;;;;2.17;1.05;;;;;;;20.13;53.50;99705.50;4478685;31;20104;-76
2023/10/04 10:57:48;;;;;;;2.08;0.82;;;;;;;20.00;53.75;99698.09;4476007;32;20109;-75
2023/10/04 11:02:47;;;;;;;1.87;0.75;;;;;;;19.96;54.66;99697.63;4472748;32;20194;-76
2023/10/04 11:05:18;;;;;;;8.15;0.80;;;;;;;19.75;55.89;99692.88;4471321;32;20105;-75
2023/10/04 11:07:47;;;;;;;5.10;0.98;;;;;;;19.76;54.66;99691.88;4470348;31;20153;-76
2023/10/04 11:10:16;;;;;;;2.53;0.95;;;;;;;19.92;55.03;99696.28;4473809;32;20101;-76
2023/10/04 11:12:44;;;;;;;3.40;1.02;;;;;;;20.39;54.06;99700.66;4480879;31;20109;-76
2023/10/04 11:15:18;;;;;;;7.35;1.00;;;;;;;20.49;51.12;99694.28;4476109;31;20162;-76
2023/10/04 11:17:46;;;;;;;1.58;0.88;;;;;;;20.67;51.65;99689.47;4481725;31;20084;-76
2023/10/04 11:20:17;;;;;;;5.50;1.20;;;;;;;20.90;49.10;99700.06;4480744;32;20175;-75
2023/10/04 11:22:46;;;;;;;2.37;0.95;;;;;;;20.30;49.61;99691.09;4472652;31;20104;-78
2023/10/04 11:25:13;;;;;;;4.82;1.12;;;;;;;20.55;49.99;99685.56;4471898;31;20104;-78
2023/10/04 11:27:47;;;;;;;3.20;0.90;;;;;;;20.85;49.50;99683.81;4473138;32;20097;-77
2023/10/04 11:30:21;;;;;;;2.97;0.87;;;;;;;21.06;50.04;99677.78;4476947;32;20092;-79
2023/10/04 11:32:50;;;;;;;2.10;0.90;;;;;;;20.49;49.79;99678.28;4472220;32;20200;-79
2023/10/04 11:35:19;;;;;;;4.00;0.98;;;;;;;20.24;51.18;99672.34;4469632;32;20173;-78
2023/10/04 11:37:50;;;;;;;6.72;1.05;;;;;;;20.21;51.07;99673.50;4471333;32;20100;-78
2023/10/04 11:40:20;;;;;;;4.95;0.95;;;;;;;20.54;51.19;99675.91;4473541;32;20087;-77
2023/10/04 11:43:01;;;;;;;3.40;0.85;;;;;;;20.88;51.02;99672.81;4477808;32;20095;-80
2023/10/04 11:45:31;;;;;;;2.92;1.30;;;;;;;20.98;47.77;99664.53;4480178;32;20127;-78
2023/10/04 11:48:00;;;;;;;3.90;0.90;;;;;;;21.23;47.59;99669.62;4475917;31;20110;-77
2023/10/04 11:50:41;;;;;;;2.92;1.05;;;;;;;21.43;48.29;99668.03;4476188;31;20096;-77